Charleston AFB, South Carolina
Current Conditions -  °F | °C
As of 12:56 PM on Saturday 20 Dec 2014 (Local Time) from KCHS Reporting Station
Overcast Overcast  
Wind Chill: 54°   Ceiling: 7000
Heat Index: 54°   Visibility: 10mi
Dew Point: 51°   Wind: 7mph
Humidity: 90%   Direction: 20°NNE
Pressure: 30.17"   Gusts: NA
Location:  32.89°N, 80.07°W
Report Text: KCHS 201756Z 02006KT 10SM SCT005 SCT050 OVC070 12/11 A3017 RMK AO2 SLP217 60010 T01220106 10122 20100 58015 $
Loading
Personal Weather Stations






























Interactive Weather Map New forecast layout! Learn more

10-Day Weather Forecast

Advertisements
Track Severe Weather on mobile